createdAt,value
2023-04-21T00:01:45.206Z,8.90
2023-04-21T00:04:13.986Z,6.80
2023-04-21T00:06:41.747Z,8.90
2023-04-21T00:09:08.912Z,8.80
2023-04-21T00:11:35.624Z,8.80
2023-04-21T00:14:02.411Z,7.90
2023-04-21T00:16:29.122Z,8.70
2023-04-21T00:18:55.844Z,8.70
2023-04-21T00:21:22.584Z,8.70
2023-04-21T00:23:50.048Z,8.70
2023-04-21T00:26:16.846Z,8.70
2023-04-21T00:28:43.476Z,8.60
2023-04-21T00:31:10.197Z,8.60
2023-04-21T00:33:36.939Z,8.60
2023-04-21T00:36:03.860Z,8.60
2023-04-21T00:38:30.603Z,8.50
2023-04-21T00:40:57.664Z,8.60
2023-04-21T00:43:25.797Z,8.50
2023-04-21T00:45:52.585Z,8.50
2023-04-21T00:48:19.296Z,8.50
2023-04-21T00:50:46.460Z,8.40
2023-04-21T00:53:15.118Z,8.40
2023-04-21T00:55:41.812Z,10.30
2023-04-21T00:58:08.460Z,8.40
2023-04-21T01:03:03.263Z,8.40
2023-04-21T01:05:31.307Z,8.30
2023-04-21T01:07:58.015Z,8.30
2023-04-21T01:10:25.134Z,8.30
2023-04-21T01:12:51.979Z,8.30
2023-04-21T01:15:18.840Z,8.20
2023-04-21T01:17:45.684Z,8.20
2023-04-21T01:20:13.996Z,8.20
2023-04-21T01:22:41.774Z,8.30
2023-04-21T01:25:09.550Z,8.20
2023-04-21T01:27:36.422Z,8.20
2023-04-21T01:30:04.168Z,8.20
2023-04-21T01:32:31.473Z,8.20
2023-04-21T01:34:59.267Z,8.20
2023-04-21T01:37:29.449Z,8.10
2023-04-21T01:39:58.064Z,8.10
2023-04-21T01:42:27.136Z,8.10
2023-04-21T01:44:54.540Z,8.10
2023-04-21T01:47:21.759Z,8.10
2023-04-21T01:49:48.436Z,8.00
2023-04-21T01:52:15.199Z,8.00
2023-04-21T01:54:41.958Z,8.00
2023-04-21T01:57:08.753Z,8.00
2023-04-21T01:59:35.610Z,8.00
2023-04-21T02:02:02.337Z,7.90
2023-04-21T02:04:29.247Z,7.90
2023-04-21T02:06:56.152Z,7.90
2023-04-21T02:09:22.822Z,7.90
2023-04-21T02:11:49.485Z,7.90
2023-04-21T02:14:16.294Z,7.80
2023-04-21T02:16:43.172Z,7.80
2023-04-21T02:19:09.976Z,7.80
2023-04-21T02:21:36.840Z,7.80
2023-04-21T02:24:03.761Z,7.80
2023-04-21T02:26:31.052Z,7.70
2023-04-21T02:28:57.785Z,7.70
2023-04-21T02:31:24.614Z,7.70
2023-04-21T02:33:51.383Z,7.70
2023-04-21T02:36:18.095Z,7.70
2023-04-21T02:38:44.798Z,7.70
2023-04-21T02:41:11.490Z,7.60
2023-04-21T02:43:38.140Z,7.60
2023-04-21T02:46:08.617Z,7.60
2023-04-21T02:48:36.063Z,7.60
2023-04-21T02:51:04.418Z,7.50
2023-04-21T02:53:31.369Z,7.50
2023-04-21T02:55:58.042Z,7.50
2023-04-21T02:58:24.946Z,7.50
2023-04-21T03:00:51.753Z,7.50
2023-04-21T03:03:18.719Z,7.40
2023-04-21T03:05:45.817Z,7.40
2023-04-21T03:08:12.534Z,7.40
2023-04-21T03:10:39.684Z,7.40
2023-04-21T03:13:06.356Z,7.30
2023-04-21T03:15:33.204Z,7.30
2023-04-21T03:17:59.898Z,7.30
2023-04-21T03:20:26.655Z,7.20
2023-04-21T03:22:54.286Z,7.20
2023-04-21T03:25:21.216Z,7.20
2023-04-21T03:27:47.881Z,7.20
2023-04-21T03:30:14.628Z,7.20
2023-04-21T03:32:41.322Z,7.20
2023-04-21T03:35:08.051Z,7.10
2023-04-21T03:37:34.762Z,7.10
2023-04-21T03:40:01.472Z,7.10
2023-04-21T03:42:29.744Z,7.00
2023-04-21T03:44:56.590Z,7.10
2023-04-21T03:47:23.362Z,7.10
2023-04-21T03:49:50.036Z,7.10
2023-04-21T03:52:16.726Z,7.00
2023-04-21T03:54:43.399Z,7.00
2023-04-21T03:57:10.157Z,7.00
2023-04-21T03:59:36.815Z,7.00
2023-04-21T04:02:04.096Z,7.00
2023-04-21T04:04:31.700Z,7.00
2023-04-21T04:06:58.583Z,7.00
2023-04-21T04:09:25.331Z,7.00
2023-04-21T04:11:51.979Z,7.00
2023-04-21T04:14:18.621Z,7.90
2023-04-21T04:16:45.317Z,6.90
2023-04-21T04:19:12.778Z,6.90
2023-04-21T04:21:39.494Z,6.90
2023-04-21T04:24:06.303Z,6.90
2023-04-21T04:26:38.383Z,6.90
2023-04-21T04:29:06.052Z,6.90
2023-04-21T04:31:32.821Z,6.90
2023-04-21T04:36:28.457Z,6.90
2023-04-21T04:38:56.296Z,6.90
2023-04-21T04:41:24.592Z,6.80
2023-04-21T04:43:52.147Z,6.80
2023-04-21T04:46:20.451Z,6.80
2023-04-21T04:48:47.469Z,6.80
2023-04-21T04:51:14.149Z,6.80
2023-04-21T04:53:40.826Z,6.80
2023-04-21T04:56:07.643Z,6.70
2023-04-21T04:58:34.332Z,6.80
2023-04-21T05:01:11.809Z,6.80
2023-04-21T05:03:38.585Z,6.70
2023-04-21T05:06:05.545Z,6.70
2023-04-21T05:08:32.314Z,6.70
2023-04-21T05:10:59.164Z,6.70
2023-04-21T05:13:25.954Z,6.80
2023-04-21T05:15:59.590Z,6.70
2023-04-21T05:18:26.463Z,6.70
2023-04-21T05:20:53.126Z,6.70
2023-04-21T05:23:20.392Z,6.70
2023-04-21T05:25:47.315Z,5.80
2023-04-21T05:28:15.303Z,6.70
2023-04-21T05:30:42.042Z,6.70
2023-04-21T05:33:09.473Z,7.10
2023-04-21T05:35:37.983Z,6.80
2023-04-21T05:38:05.528Z,6.80
2023-04-21T05:40:32.318Z,6.80
2023-04-21T05:42:58.995Z,6.80
2023-04-21T05:45:25.882Z,6.80
2023-04-21T05:47:52.750Z,6.80
2023-04-21T05:50:20.062Z,6.80
2023-04-21T05:52:46.721Z,6.80
2023-04-21T05:55:13.381Z,6.80
2023-04-21T05:57:40.043Z,6.90
2023-04-21T06:00:07.509Z,6.90
2023-04-21T06:02:34.271Z,6.90
2023-04-21T06:05:01.238Z,6.90
2023-04-21T06:07:28.343Z,6.80
2023-04-21T06:09:55.005Z,6.90
2023-04-21T06:12:21.701Z,6.90
2023-04-21T06:14:48.416Z,6.90
2023-04-21T06:17:18.848Z,6.90
2023-04-21T06:19:45.694Z,6.80
2023-04-21T06:22:12.380Z,6.90
2023-04-21T06:24:39.095Z,6.90
2023-04-21T06:27:11.375Z,6.90
2023-04-21T06:29:38.129Z,6.90
2023-04-21T06:32:05.155Z,7.00
2023-04-21T06:34:31.916Z,7.00
2023-04-21T06:37:00.923Z,7.00
2023-04-21T06:39:28.739Z,7.00
2023-04-21T06:41:58.621Z,7.00
2023-04-21T06:44:25.647Z,7.10
2023-04-21T06:46:52.399Z,7.10
2023-04-21T06:49:19.423Z,7.10
2023-04-21T06:51:47.108Z,7.20
2023-04-21T06:54:13.789Z,7.30
2023-04-21T06:56:42.123Z,7.30
2023-04-21T06:59:09.901Z,7.30
2023-04-21T07:01:36.722Z,7.40
2023-04-21T07:04:05.690Z,7.40
2023-04-21T07:06:32.474Z,7.40
2023-04-21T07:08:59.182Z,7.50
2023-04-21T07:11:26.172Z,7.50
2023-04-21T07:13:52.865Z,7.50
2023-04-21T07:16:19.575Z,7.60
2023-04-21T07:18:46.269Z,7.60
2023-04-21T07:21:12.968Z,7.60
2023-04-21T07:23:39.621Z,7.70
2023-04-21T07:26:06.306Z,7.70
2023-04-21T07:28:32.964Z,7.60
2023-04-21T07:31:01.501Z,7.80
2023-04-21T07:33:29.636Z,7.80
2023-04-21T07:35:56.365Z,7.80
2023-04-21T07:38:23.050Z,7.80
2023-04-21T07:40:49.770Z,7.90
2023-04-21T07:43:16.520Z,7.90
2023-04-21T07:45:43.388Z,7.90
2023-04-21T07:48:10.078Z,8.00
2023-04-21T07:50:37.051Z,8.10
2023-04-21T07:53:03.780Z,8.10
2023-04-21T07:55:30.466Z,8.20
2023-04-21T07:57:57.150Z,8.20
2023-04-21T08:00:23.921Z,8.20
2023-04-21T08:02:50.781Z,8.30
2023-04-21T08:05:18.017Z,8.40
2023-04-21T08:07:44.934Z,8.50
2023-04-21T08:10:12.147Z,8.50
2023-04-21T08:12:38.870Z,8.60
2023-04-21T08:15:08.289Z,8.70
2023-04-21T08:17:35.162Z,8.70
2023-04-21T08:20:02.180Z,8.80
2023-04-21T08:22:28.915Z,8.90
2023-04-21T08:24:55.640Z,9.10
2023-04-21T08:27:23.564Z,9.10
2023-04-21T08:29:51.022Z,9.20
2023-04-21T08:32:23.428Z,9.40
2023-04-21T08:34:51.819Z,9.60
2023-04-21T08:37:19.446Z,9.60
2023-04-21T08:39:46.751Z,9.70
2023-04-21T08:42:15.116Z,9.40
2023-04-21T08:44:41.782Z,10.00
2023-04-21T08:47:11.287Z,10.00
2023-04-21T08:49:39.705Z,10.20
2023-04-21T08:52:06.798Z,10.30
2023-04-21T08:54:33.974Z,10.50
2023-04-21T08:57:11.889Z,10.50
2023-04-21T08:59:41.255Z,10.60
2023-04-21T09:02:16.838Z,10.80
2023-04-21T09:04:48.561Z,11.00
2023-04-21T09:07:36.233Z,11.00
2023-04-21T09:10:04.201Z,11.20
2023-04-21T09:12:30.984Z,11.30
2023-04-21T09:14:58.340Z,11.50
2023-04-21T09:17:34.034Z,11.60
2023-04-21T09:20:21.647Z,11.70
2023-04-21T09:22:51.132Z,11.80
2023-04-21T09:25:19.943Z,12.00
2023-04-21T09:27:47.332Z,12.10
2023-04-21T09:30:15.235Z,12.20
2023-04-21T09:32:42.204Z,12.30
2023-04-21T09:35:12.228Z,12.50
2023-04-21T09:37:39.541Z,12.60
2023-04-21T09:40:07.012Z,12.70
2023-04-21T09:42:37.136Z,12.80
2023-04-21T09:47:42.632Z,13.10
2023-04-21T09:50:12.921Z,13.20
2023-04-21T09:52:40.382Z,13.30
2023-04-21T09:55:13.322Z,13.50
2023-04-21T09:57:43.017Z,13.50
2023-04-21T10:00:14.128Z,13.60
2023-04-21T10:02:51.512Z,13.70
2023-04-21T10:05:18.619Z,13.90
2023-04-21T10:07:47.122Z,13.90
2023-04-21T10:10:22.086Z,14.00
2023-04-21T10:12:49.060Z,13.30
2023-04-21T10:15:32.992Z,14.30
2023-04-21T10:18:16.806Z,14.30
2023-04-21T10:20:51.364Z,14.40
2023-04-21T10:23:32.402Z,14.50
2023-04-21T10:26:07.948Z,14.60
2023-04-21T10:28:42.311Z,14.70
2023-04-21T10:31:51.731Z,14.70
2023-04-21T10:34:22.763Z,14.90
2023-04-21T10:36:56.475Z,14.90
2023-04-21T10:39:27.107Z,15.00
2023-04-21T10:42:00.635Z,15.00
2023-04-21T10:44:29.011Z,15.20
2023-04-21T10:46:56.492Z,15.20
2023-04-21T10:49:24.238Z,15.30
2023-04-21T10:52:00.236Z,15.40
2023-04-21T10:54:37.121Z,15.50
2023-04-21T10:57:07.875Z,15.50
2023-04-21T10:59:36.087Z,15.60
2023-04-21T11:02:12.052Z,15.60
2023-04-21T11:04:47.903Z,15.70
2023-04-21T11:07:16.831Z,15.80
2023-04-21T11:09:45.386Z,15.80
2023-04-21T11:12:18.072Z,15.90
2023-04-21T11:14:48.974Z,16.00
2023-04-21T11:17:18.419Z,16.10
2023-04-21T11:19:56.171Z,16.20
2023-04-21T11:22:26.832Z,16.20
2023-04-21T11:24:55.553Z,16.40
2023-04-21T11:27:22.902Z,16.40
2023-04-21T11:29:51.089Z,16.50
2023-04-21T11:32:18.347Z,16.60
2023-04-21T11:34:45.339Z,16.70
2023-04-21T11:37:17.443Z,16.80
2023-04-21T11:39:44.610Z,16.90
2023-04-21T11:42:12.138Z,16.90
2023-04-21T11:44:41.844Z,18.70
2023-04-21T11:47:24.616Z,17.00
2023-04-21T11:49:58.940Z,17.20
2023-04-21T11:52:33.594Z,17.30
2023-04-21T11:55:02.903Z,17.40
2023-04-21T11:57:31.087Z,17.50
2023-04-21T12:00:02.560Z,17.50
2023-04-21T12:02:33.644Z,17.60
2023-04-21T12:05:18.688Z,17.70
2023-04-21T12:07:47.927Z,17.80
2023-04-21T12:10:21.980Z,17.90
2023-04-21T12:12:49.087Z,17.90
2023-04-21T12:15:20.271Z,18.10
2023-04-21T12:17:48.553Z,18.10
2023-04-21T12:20:17.334Z,18.20
2023-04-21T12:22:44.195Z,18.30
2023-04-21T12:25:11.032Z,18.40
2023-04-21T12:27:37.781Z,18.50
2023-04-21T12:30:04.935Z,18.50
2023-04-21T12:32:31.787Z,18.60
2023-04-21T12:35:00.542Z,18.80
2023-04-21T12:37:27.335Z,18.80
2023-04-21T12:39:54.031Z,18.90
2023-04-21T12:42:20.712Z,19.00
2023-04-21T12:44:47.360Z,19.20
2023-04-21T12:47:14.138Z,19.20
2023-04-21T12:49:41.870Z,19.30
2023-04-21T12:52:08.850Z,19.30
2023-04-21T12:54:35.695Z,19.50
2023-04-21T12:57:02.617Z,19.50
2023-04-21T12:59:29.477Z,19.70
2023-04-21T13:01:56.382Z,19.70
2023-04-21T13:04:23.311Z,19.90
2023-04-21T13:06:50.204Z,19.90
2023-04-21T13:09:17.064Z,20.00
2023-04-21T13:11:43.770Z,20.10
2023-04-21T13:14:10.903Z,20.20
2023-04-21T13:16:37.733Z,20.30
2023-04-21T13:19:04.576Z,20.30
2023-04-21T13:21:32.642Z,20.40
2023-04-21T13:23:59.362Z,20.60
2023-04-21T13:26:27.059Z,20.70
2023-04-21T13:28:53.944Z,20.80
2023-04-21T13:31:20.861Z,20.90
2023-04-21T13:33:47.631Z,21.00
2023-04-21T13:36:14.424Z,21.30
2023-04-21T13:38:41.172Z,21.20
2023-04-21T13:41:08.273Z,21.40
2023-04-21T13:43:35.360Z,21.50
2023-04-21T13:46:02.220Z,21.60
2023-04-21T13:48:29.814Z,21.70
2023-04-21T13:50:56.702Z,21.80
2023-04-21T13:53:23.358Z,22.00
2023-04-21T13:55:50.118Z,22.10
2023-04-21T13:58:17.110Z,22.20
2023-04-21T14:00:43.967Z,23.90
2023-04-21T14:03:11.670Z,22.40
2023-04-21T14:05:39.117Z,22.60
2023-04-21T14:08:06.384Z,22.70
2023-04-21T14:10:33.317Z,22.80
2023-04-21T14:13:00.067Z,22.90
2023-04-21T14:15:27.018Z,23.10
2023-04-21T14:17:53.992Z,23.20
2023-04-21T14:20:20.905Z,23.30
2023-04-21T14:22:47.722Z,23.40
2023-04-21T14:25:14.603Z,23.60
2023-04-21T14:27:41.504Z,23.70
2023-04-21T14:30:09.197Z,23.80
2023-04-21T14:32:35.938Z,23.90
2023-04-21T14:35:03.897Z,24.10
2023-04-21T14:37:30.858Z,24.10
2023-04-21T14:39:57.623Z,24.30
2023-04-21T14:42:24.345Z,23.70
2023-04-21T14:44:51.073Z,24.60
2023-04-21T14:47:17.839Z,24.60
2023-04-21T14:49:44.618Z,24.80
2023-04-21T14:52:11.416Z,24.90
2023-04-21T14:54:38.076Z,25.10
2023-04-21T14:57:18.694Z,25.10
2023-04-21T14:59:47.985Z,25.20
2023-04-21T15:02:14.810Z,25.40
2023-04-21T15:04:41.579Z,25.50
2023-04-21T15:07:08.476Z,25.60
2023-04-21T15:09:36.608Z,25.70
2023-04-21T15:12:03.738Z,25.80
2023-04-21T15:14:30.497Z,25.90
2023-04-21T15:16:57.391Z,25.90
2023-04-21T15:19:25.528Z,26.00
2023-04-21T15:21:52.593Z,26.10
2023-04-21T15:24:19.314Z,28.80
2023-04-21T15:26:46.044Z,26.30
2023-04-21T15:29:12.708Z,26.40
2023-04-21T15:31:40.217Z,26.40
2023-04-21T15:34:07.319Z,26.60
2023-04-21T15:36:34.345Z,26.60
2023-04-21T15:39:01.074Z,26.70
2023-04-21T15:41:29.631Z,26.60
2023-04-21T15:43:56.501Z,26.70
2023-04-21T15:46:23.392Z,26.60
2023-04-21T15:48:50.345Z,26.70
2023-04-21T15:51:18.709Z,26.60
2023-04-21T15:53:47.884Z,26.60
2023-04-21T15:56:15.539Z,26.60
2023-04-21T15:58:42.573Z,26.50
2023-04-21T16:01:09.661Z,26.50
2023-04-21T16:03:37.201Z,26.40
2023-04-21T16:06:04.273Z,26.40
2023-04-21T16:08:33.151Z,26.40
2023-04-21T16:11:00.476Z,26.40
2023-04-21T16:13:27.330Z,26.30
2023-04-21T16:15:54.124Z,26.30
2023-04-21T16:18:20.961Z,26.30
2023-04-21T16:20:47.972Z,26.20
2023-04-21T16:23:15.357Z,26.10
2023-04-21T16:25:42.655Z,26.00
2023-04-21T16:28:09.848Z,26.00
2023-04-21T16:30:38.545Z,25.90
2023-04-21T16:33:05.450Z,25.80
2023-04-21T16:35:32.355Z,25.80
2023-04-21T16:37:59.147Z,25.70
2023-04-21T16:40:26.098Z,25.60
2023-04-21T16:42:52.906Z,25.60
2023-04-21T16:45:19.784Z,25.50
2023-04-21T16:47:46.602Z,25.40
2023-04-21T16:50:13.523Z,25.30
2023-04-21T16:52:40.449Z,25.20
2023-04-21T16:55:07.491Z,25.10
2023-04-21T16:57:34.872Z,25.10
2023-04-21T17:00:04.532Z,25.10
2023-04-21T17:02:31.642Z,25.00
2023-04-21T17:04:58.853Z,24.80
2023-04-21T17:07:25.620Z,24.80
2023-04-21T17:09:52.804Z,24.80
2023-04-21T17:12:19.754Z,24.70
2023-04-21T17:14:46.867Z,24.50
2023-04-21T17:17:13.550Z,24.50
2023-04-21T17:19:40.669Z,24.50
2023-04-21T17:22:07.741Z,24.40
2023-04-21T17:24:49.033Z,24.20
2023-04-21T17:27:19.224Z,24.20
2023-04-21T17:29:45.917Z,24.10
2023-04-21T17:32:12.655Z,24.30
2023-04-21T17:34:39.683Z,23.80
2023-04-21T17:37:06.742Z,23.80
2023-04-21T17:39:33.431Z,23.80
2023-04-21T17:42:02.600Z,23.70
2023-04-21T17:44:29.596Z,23.50
2023-04-21T17:46:56.751Z,23.50
2023-04-21T17:49:24.856Z,23.40
2023-04-21T17:51:52.046Z,23.40
2023-04-21T17:54:18.880Z,23.20
2023-04-21T17:56:46.503Z,23.20
2023-04-21T17:59:13.472Z,23.10
2023-04-21T18:01:40.730Z,23.10
2023-04-21T18:04:07.809Z,22.90
2023-04-21T18:06:35.421Z,22.90
2023-04-21T18:09:02.272Z,22.90
2023-04-21T18:11:28.996Z,22.80
2023-04-21T18:13:55.686Z,22.70
2023-04-21T18:16:22.632Z,22.70
2023-04-21T18:18:49.968Z,22.60
2023-04-21T18:21:16.862Z,22.50
2023-04-21T18:23:43.889Z,22.40
2023-04-21T18:26:10.853Z,22.30
2023-04-21T18:28:37.532Z,22.30
2023-04-21T18:31:04.290Z,22.30
2023-04-21T18:33:31.064Z,22.20
2023-04-21T18:35:58.127Z,22.10
2023-04-21T18:38:24.863Z,22.10
2023-04-21T18:40:51.565Z,22.00
2023-04-21T18:43:18.305Z,22.00
2023-04-21T18:45:45.118Z,21.80
2023-04-21T18:48:12.530Z,21.80
2023-04-21T18:50:40.838Z,21.70
2023-04-21T18:53:08.241Z,21.70
2023-04-21T18:55:36.181Z,21.60
2023-04-21T18:58:03.209Z,21.60
2023-04-21T19:00:31.955Z,21.50
2023-04-21T19:03:02.144Z,21.40
2023-04-21T19:05:31.042Z,21.40
2023-04-21T19:07:58.426Z,21.30
2023-04-21T19:10:25.112Z,21.30
2023-04-21T19:12:51.846Z,21.20
2023-04-21T19:15:18.697Z,21.00
2023-04-21T19:17:45.472Z,21.10
2023-04-21T19:20:12.457Z,21.00
2023-04-21T19:22:39.156Z,20.90
2023-04-21T19:25:07.079Z,20.80
2023-04-21T19:27:33.979Z,20.80
2023-04-21T19:30:01.184Z,20.70
2023-04-21T19:32:28.053Z,20.70
2023-04-21T19:34:54.887Z,20.50
2023-04-21T19:37:21.602Z,20.50
2023-04-21T19:39:48.346Z,20.50
2023-04-21T19:42:15.023Z,20.40
2023-04-21T19:44:41.655Z,20.30
2023-04-21T19:47:08.326Z,20.30
2023-04-21T19:49:35.439Z,20.20
2023-04-21T19:52:02.257Z,20.30
2023-04-21T19:54:28.936Z,20.00
2023-04-21T19:56:55.834Z,20.10
2023-04-21T19:59:22.512Z,20.00
2023-04-21T20:01:49.367Z,19.90
2023-04-21T20:04:16.610Z,19.80
2023-04-21T20:06:43.954Z,19.80
2023-04-21T20:09:11.007Z,19.80
2023-04-21T20:11:37.780Z,19.70
2023-04-21T20:14:04.506Z,19.60
2023-04-21T20:16:31.937Z,19.60
2023-04-21T20:18:58.953Z,19.50
2023-04-21T20:21:25.667Z,19.50
2023-04-21T20:23:52.620Z,19.50
2023-04-21T20:26:19.344Z,19.40
2023-04-21T20:28:46.047Z,19.40
2023-04-21T20:31:13.365Z,19.30
2023-04-21T20:33:40.201Z,19.30
2023-04-21T20:36:10.301Z,19.30
2023-04-21T20:38:38.376Z,19.20
2023-04-21T20:41:05.440Z,19.10
2023-04-21T20:43:33.326Z,19.10
2023-04-21T20:46:01.863Z,19.00
2023-04-21T20:48:28.592Z,19.60
2023-04-21T20:50:55.829Z,18.90
2023-04-21T20:53:22.970Z,18.90
2023-04-21T20:55:49.894Z,18.90
2023-04-21T20:58:16.723Z,18.80
2023-04-21T21:00:43.518Z,18.80
2023-04-21T21:03:11.893Z,18.80
2023-04-21T21:05:39.044Z,18.70
2023-04-21T21:08:06.140Z,18.70
2023-04-21T21:10:32.911Z,18.70
2023-04-21T21:12:59.778Z,18.70
2023-04-21T21:15:30.842Z,18.60
2023-04-21T21:17:57.853Z,18.60
2023-04-21T21:20:24.566Z,18.50
2023-04-21T21:22:51.320Z,18.50
2023-04-21T21:25:18.230Z,18.40
2023-04-21T21:27:45.422Z,18.40
2023-04-21T21:30:12.373Z,18.40
2023-04-21T21:32:39.178Z,18.40
2023-04-21T21:35:07.564Z,18.30
2023-04-21T21:37:34.603Z,18.30
2023-04-21T21:40:01.371Z,18.30
2023-04-21T21:42:28.039Z,18.30
2023-04-21T21:44:54.768Z,18.20
2023-04-21T21:47:21.808Z,18.20
2023-04-21T21:49:48.912Z,18.20
2023-04-21T21:52:15.750Z,18.10
2023-04-21T21:54:42.768Z,18.10
2023-04-21T21:57:09.456Z,18.10
2023-04-21T21:59:36.380Z,18.00
2023-04-21T22:02:03.471Z,18.00
2023-04-21T22:04:31.095Z,17.90
2023-04-21T22:06:57.986Z,17.90
2023-04-21T22:09:24.780Z,17.90
2023-04-21T22:11:51.532Z,15.90
2023-04-21T22:14:23.319Z,17.80
2023-04-21T22:16:52.675Z,17.80
2023-04-21T22:19:19.696Z,17.80
2023-04-21T22:21:46.511Z,17.70
2023-04-21T22:24:13.328Z,17.70
2023-04-21T22:26:40.316Z,17.70
2023-04-21T22:29:07.093Z,17.70
2023-04-21T22:31:34.094Z,17.60
2023-04-21T22:34:00.956Z,17.60
2023-04-21T22:36:27.673Z,17.50
2023-04-21T22:38:54.433Z,17.60
2023-04-21T22:41:21.179Z,17.50
2023-04-21T22:43:48.047Z,17.50
2023-04-21T22:46:15.147Z,17.50
2023-04-21T22:48:41.939Z,18.00
2023-04-21T22:51:08.618Z,17.40
2023-04-21T22:53:35.458Z,17.30
2023-04-21T22:56:02.281Z,17.30
2023-04-21T22:58:28.981Z,17.30
2023-04-21T23:00:55.688Z,17.30
2023-04-21T23:03:23.673Z,17.30
2023-04-21T23:05:50.583Z,17.30
2023-04-21T23:08:17.245Z,17.20
2023-04-21T23:10:43.902Z,17.20
2023-04-21T23:13:10.710Z,17.20
2023-04-21T23:15:37.434Z,17.20
2023-04-21T23:18:04.399Z,17.10
2023-04-21T23:20:31.703Z,17.10
2023-04-21T23:22:58.980Z,17.10
2023-04-21T23:25:25.878Z,17.00
2023-04-21T23:27:52.775Z,17.00
2023-04-21T23:30:19.892Z,17.00
2023-04-21T23:32:47.108Z,17.00
2023-04-21T23:35:14.146Z,16.90
2023-04-21T23:37:41.122Z,18.60
2023-04-21T23:40:12.786Z,16.90
2023-04-21T23:42:39.974Z,16.90
2023-04-21T23:45:07.802Z,16.80
2023-04-21T23:47:34.803Z,16.80
2023-04-21T23:50:01.865Z,16.80
2023-04-21T23:52:29.017Z,16.80
2023-04-21T23:54:55.790Z,16.70
2023-04-21T23:57:22.641Z,16.80
2023-04-21T23:59:49.352Z,16.70
